createdAt,value
2023-03-05T00:00:40.017Z,0.53
2023-03-05T00:01:40.628Z,0.53
2023-03-05T00:02:41.515Z,0.53
2023-03-05T00:03:42.364Z,0.52
2023-03-05T00:04:42.936Z,0.52
2023-03-05T00:05:43.823Z,0.53
2023-03-05T00:06:44.681Z,0.53
2023-03-05T00:07:45.277Z,0.52
2023-03-05T00:08:46.138Z,0.52
2023-03-05T00:09:47.005Z,0.53
2023-03-05T00:10:47.614Z,0.52
2023-03-05T00:11:48.500Z,0.52
2023-03-05T00:12:49.333Z,0.51
2023-03-05T00:13:49.919Z,0.51
2023-03-05T00:14:50.795Z,0.51
2023-03-05T00:15:51.652Z,0.50
2023-03-05T00:16:52.248Z,0.51
2023-03-05T00:17:53.122Z,0.52
2023-03-05T00:18:53.975Z,0.51
2023-03-05T00:19:54.566Z,0.51
2023-03-05T00:20:55.415Z,0.51
2023-03-05T00:21:56.281Z,0.51
2023-03-05T00:22:56.887Z,0.51
2023-03-05T00:23:57.759Z,0.51
2023-03-05T00:24:58.623Z,0.50
2023-03-05T00:25:59.226Z,0.51
2023-03-05T00:27:00.115Z,0.51
2023-03-05T00:28:00.954Z,0.51
2023-03-05T00:29:01.560Z,0.51
2023-03-05T00:30:02.419Z,0.52
2023-03-05T00:31:03.317Z,0.52
2023-03-05T00:32:03.935Z,0.53
2023-03-05T00:33:04.760Z,0.52
2023-03-05T00:34:05.626Z,0.52
2023-03-05T00:35:06.213Z,0.52
2023-03-05T00:36:07.108Z,0.52
2023-03-05T00:37:07.959Z,0.52
2023-03-05T00:38:08.550Z,0.52
2023-03-05T00:39:09.402Z,0.53
2023-03-05T00:40:10.295Z,0.53
2023-03-05T00:41:10.863Z,0.52
2023-03-05T00:42:11.997Z,0.51
2023-03-05T00:43:12.866Z,0.51
2023-03-05T00:44:13.460Z,0.50
2023-03-05T00:45:14.308Z,0.51
2023-03-05T00:46:15.211Z,0.52
2023-03-05T00:47:15.796Z,0.51
2023-03-05T00:48:16.659Z,0.51
2023-03-05T00:49:17.523Z,0.50
2023-03-05T00:50:18.111Z,0.52
2023-03-05T00:51:18.972Z,0.51
2023-03-05T00:52:19.846Z,0.51
2023-03-05T00:53:20.434Z,0.50
2023-03-05T00:54:21.290Z,0.51
2023-03-05T00:55:22.164Z,0.52
2023-03-05T00:56:22.759Z,0.52
2023-03-05T00:57:23.622Z,0.50
2023-03-05T00:58:24.495Z,0.51
2023-03-05T00:59:25.098Z,0.51
2023-03-05T01:00:25.957Z,0.51
2023-03-05T01:01:26.883Z,0.52
2023-03-05T01:02:27.443Z,0.51
2023-03-05T01:03:28.311Z,0.51
2023-03-05T01:04:29.184Z,0.51
2023-03-05T01:05:29.805Z,0.52
2023-03-05T01:06:30.630Z,0.51
2023-03-05T01:07:31.475Z,0.51
2023-03-05T01:08:32.104Z,0.51
2023-03-05T01:09:32.953Z,0.51
2023-03-05T01:10:33.819Z,0.51
2023-03-05T01:11:34.418Z,0.52
2023-03-05T01:12:35.293Z,0.51
2023-03-05T01:13:36.134Z,0.51
2023-03-05T01:14:36.746Z,0.51
2023-03-05T01:15:37.608Z,0.51
2023-03-05T01:16:38.485Z,0.52
2023-03-05T01:17:39.084Z,0.52
2023-03-05T01:18:39.961Z,0.52
2023-03-05T01:19:40.819Z,0.53
2023-03-05T01:20:41.397Z,0.52
2023-03-05T01:21:42.254Z,0.52
2023-03-05T01:22:43.118Z,0.52
2023-03-05T01:23:43.758Z,0.53
2023-03-05T01:24:44.629Z,0.52
2023-03-05T01:25:45.468Z,0.53
2023-03-05T01:26:46.070Z,0.54
2023-03-05T01:27:46.924Z,0.54
2023-03-05T01:28:47.807Z,0.55
2023-03-05T01:29:48.401Z,0.54
2023-03-05T01:30:49.271Z,0.53
2023-03-05T01:31:50.190Z,0.54
2023-03-05T01:32:50.772Z,0.55
2023-03-05T01:33:51.644Z,0.55
2023-03-05T01:34:52.495Z,0.54
2023-03-05T01:35:53.115Z,0.55
2023-03-05T01:36:53.965Z,0.56
2023-03-05T01:37:54.817Z,0.56
2023-03-05T01:38:55.437Z,0.56
2023-03-05T01:39:56.299Z,0.56
2023-03-05T01:40:57.171Z,0.57
2023-03-05T01:41:57.772Z,0.56
2023-03-05T01:42:58.627Z,0.58
2023-03-05T01:43:59.501Z,0.57
2023-03-05T01:45:00.137Z,0.57
2023-03-05T01:46:00.996Z,0.57
2023-03-05T01:47:01.841Z,0.56
2023-03-05T01:48:02.434Z,0.56
2023-03-05T01:49:03.304Z,0.56
2023-03-05T01:50:04.164Z,0.57
2023-03-05T01:51:04.756Z,0.56
2023-03-05T01:52:05.620Z,0.57
2023-03-05T01:53:06.497Z,0.56
2023-03-05T01:54:07.068Z,0.55
2023-03-05T01:55:07.936Z,0.55
2023-03-05T01:56:08.805Z,0.54
2023-03-05T01:57:09.413Z,0.54
2023-03-05T01:58:10.275Z,0.53
2023-03-05T01:59:11.130Z,0.55
2023-03-05T02:00:11.723Z,0.56
2023-03-05T02:01:12.664Z,0.54
2023-03-05T02:02:13.531Z,0.55
2023-03-05T02:03:14.121Z,0.55
2023-03-05T02:04:14.972Z,0.56
2023-03-05T02:05:15.841Z,0.55
2023-03-05T02:06:16.434Z,0.55
2023-03-05T02:07:17.310Z,0.56
2023-03-05T02:08:18.175Z,0.54
2023-03-05T02:09:18.761Z,0.53
2023-03-05T02:10:19.615Z,0.54
2023-03-05T02:11:20.504Z,0.54
2023-03-05T02:12:21.088Z,0.54
2023-03-05T02:13:21.925Z,0.53
2023-03-05T02:14:22.772Z,0.54
2023-03-05T02:15:23.376Z,0.53
2023-03-05T02:16:24.301Z,0.52
2023-03-05T02:17:25.144Z,0.53
2023-03-05T02:18:25.747Z,0.53
2023-03-05T02:19:26.597Z,0.54
2023-03-05T02:20:27.450Z,0.52
2023-03-05T02:21:28.053Z,0.52
2023-03-05T02:22:28.937Z,0.52
2023-03-05T02:23:29.788Z,0.52
2023-03-05T02:24:30.382Z,0.52
2023-03-05T02:25:31.267Z,0.52
2023-03-05T02:26:32.135Z,0.52
2023-03-05T02:27:32.749Z,0.51
2023-03-05T02:28:33.607Z,0.52
2023-03-05T02:29:34.471Z,0.53
2023-03-05T02:30:35.079Z,0.52
2023-03-05T02:31:35.947Z,0.53
2023-03-05T02:32:36.905Z,0.52
2023-03-05T02:33:37.481Z,0.53
2023-03-05T02:34:38.337Z,0.51
2023-03-05T02:35:39.224Z,0.52
2023-03-05T02:36:39.805Z,0.52
2023-03-05T02:37:40.718Z,0.51
2023-03-05T02:38:41.568Z,0.51
2023-03-05T02:39:42.170Z,0.51
2023-03-05T02:40:43.028Z,0.52
2023-03-05T02:41:43.870Z,0.51
2023-03-05T02:42:44.498Z,0.52
2023-03-05T02:43:45.381Z,0.52
2023-03-05T02:45:01.077Z,0.52
2023-03-05T02:45:47.182Z,0.52
2023-03-05T02:46:47.986Z,0.53
2023-03-05T02:47:48.842Z,0.53
2023-03-05T02:48:49.442Z,0.54
2023-03-05T02:49:50.275Z,0.55
2023-03-05T02:50:51.127Z,0.54
2023-03-05T02:51:51.726Z,0.53
2023-03-05T02:52:52.598Z,0.52
2023-03-05T02:53:53.457Z,0.52
2023-03-05T02:54:54.040Z,0.52
2023-03-05T02:55:54.899Z,0.52
2023-03-05T02:56:55.755Z,0.52
2023-03-05T02:57:56.373Z,0.52
2023-03-05T02:58:57.249Z,0.53
2023-03-05T02:59:58.142Z,0.53
2023-03-05T03:00:58.733Z,0.53
2023-03-05T03:01:59.569Z,0.53
2023-03-05T03:03:00.482Z,0.54
2023-03-05T03:04:01.056Z,0.53
2023-03-05T03:05:01.915Z,0.52
2023-03-05T03:06:02.785Z,0.52
2023-03-05T03:07:03.367Z,0.52
2023-03-05T03:08:04.248Z,0.52
2023-03-05T03:09:05.100Z,0.53
2023-03-05T03:10:05.684Z,0.53
2023-03-05T03:11:06.534Z,0.53
2023-03-05T03:12:07.391Z,0.53
2023-03-05T03:13:07.987Z,0.53
2023-03-05T03:14:08.857Z,0.54
2023-03-05T03:15:09.716Z,0.54
2023-03-05T03:16:10.317Z,0.54
2023-03-05T03:17:11.156Z,0.53
2023-03-05T03:18:12.037Z,0.53
2023-03-05T03:19:12.640Z,0.53
2023-03-05T03:20:13.504Z,0.53
2023-03-05T03:21:14.371Z,0.54
2023-03-05T03:22:14.968Z,0.53
2023-03-05T03:23:15.835Z,0.54
2023-03-05T03:24:16.691Z,0.54
2023-03-05T03:25:17.326Z,0.55
2023-03-05T03:26:18.159Z,0.54
2023-03-05T03:27:19.020Z,0.55
2023-03-05T03:28:19.646Z,0.56
2023-03-05T03:29:20.499Z,0.56
2023-03-05T03:30:21.358Z,0.56
2023-03-05T03:31:22.008Z,0.57
2023-03-05T03:32:22.883Z,0.58
2023-03-05T03:33:23.812Z,0.57
2023-03-05T03:34:24.411Z,0.58
2023-03-05T03:35:25.349Z,0.58
2023-03-05T03:36:26.171Z,0.58
2023-03-05T03:37:26.767Z,0.58
2023-03-05T03:38:27.643Z,0.56
2023-03-05T03:39:28.491Z,0.56
2023-03-05T03:40:29.091Z,0.56
2023-03-05T03:41:29.938Z,0.55
2023-03-05T03:42:30.793Z,0.58
2023-03-05T03:43:31.407Z,0.56
2023-03-05T03:44:32.265Z,0.57
2023-03-05T03:45:33.117Z,0.57
2023-03-05T03:46:33.755Z,0.57
2023-03-05T03:47:34.586Z,0.57
2023-03-05T03:48:35.463Z,0.57
2023-03-05T03:49:36.075Z,0.58
2023-03-05T03:50:36.936Z,0.57
2023-03-05T03:51:37.804Z,0.59
2023-03-05T03:52:38.401Z,0.58
2023-03-05T03:53:39.253Z,0.58
2023-03-05T03:54:40.137Z,0.59
2023-03-05T03:55:40.744Z,0.59
2023-03-05T03:56:41.606Z,0.58
2023-03-05T03:57:42.473Z,0.59
2023-03-05T03:58:43.072Z,0.58
2023-03-05T03:59:43.945Z,0.58
2023-03-05T04:00:44.823Z,0.58
2023-03-05T04:01:45.400Z,0.57
2023-03-05T04:02:46.327Z,0.58
2023-03-05T04:03:47.138Z,0.57
2023-03-05T04:04:47.764Z,0.59
2023-03-05T04:05:48.619Z,0.58
2023-03-05T04:06:49.470Z,0.58
2023-03-05T04:07:50.082Z,0.56
2023-03-05T04:08:50.945Z,0.57
2023-03-05T04:09:51.820Z,0.57
2023-03-05T04:10:52.414Z,0.55
2023-03-05T04:11:53.269Z,0.55
2023-03-05T04:12:54.126Z,0.56
2023-03-05T04:13:54.703Z,0.55
2023-03-05T04:14:55.595Z,0.57
2023-03-05T04:15:56.461Z,0.56
2023-03-05T04:16:57.054Z,0.57
2023-03-05T04:17:57.916Z,0.57
2023-03-05T04:18:58.774Z,0.57
2023-03-05T04:19:59.384Z,0.57
2023-03-05T04:21:00.253Z,0.57
2023-03-05T04:22:01.124Z,0.57
2023-03-05T04:23:01.732Z,0.57
2023-03-05T04:24:02.580Z,0.58
2023-03-05T04:25:03.459Z,0.57
2023-03-05T04:26:04.086Z,0.56
2023-03-05T04:27:04.924Z,0.56
2023-03-05T04:28:05.790Z,0.56
2023-03-05T04:29:06.394Z,0.56
2023-03-05T04:30:07.300Z,0.55
2023-03-05T04:31:08.238Z,0.54
2023-03-05T04:32:08.834Z,0.56
2023-03-05T04:33:09.652Z,0.56
2023-03-05T04:34:10.512Z,0.56
2023-03-05T04:35:11.122Z,0.57
2023-03-05T04:36:11.979Z,0.57
2023-03-05T04:37:12.843Z,0.57
2023-03-05T04:38:13.422Z,0.58
2023-03-05T04:39:14.296Z,0.58
2023-03-05T04:40:15.165Z,0.58
2023-03-05T04:41:15.775Z,0.57
2023-03-05T04:42:16.626Z,0.56
2023-03-05T04:43:17.480Z,0.57
2023-03-05T04:44:18.076Z,0.58
2023-03-05T04:45:18.939Z,0.57
2023-03-05T04:46:19.805Z,0.56
2023-03-05T04:47:20.391Z,0.56
2023-03-05T04:48:21.249Z,0.56
2023-03-05T04:49:22.113Z,0.55
2023-03-05T04:50:22.729Z,0.56
2023-03-05T04:51:23.591Z,0.56
2023-03-05T04:52:24.451Z,0.57
2023-03-05T04:53:25.054Z,0.55
2023-03-05T04:54:25.898Z,0.55
2023-03-05T04:55:26.774Z,0.55
2023-03-05T04:56:27.371Z,0.56
2023-03-05T04:57:28.244Z,0.55
2023-03-05T04:58:29.117Z,0.56
2023-03-05T04:59:29.695Z,0.57
2023-03-05T05:00:30.559Z,0.57
2023-03-05T05:01:31.485Z,0.57
2023-03-05T05:02:32.069Z,0.57
2023-03-05T05:03:32.938Z,0.56
2023-03-05T05:04:33.790Z,0.55
2023-03-05T05:05:34.370Z,0.54
2023-03-05T05:06:35.238Z,0.54
2023-03-05T05:07:36.107Z,0.53
2023-03-05T05:08:36.706Z,0.53
2023-03-05T05:09:37.564Z,0.53
2023-03-05T05:10:38.423Z,0.52
2023-03-05T05:11:39.027Z,0.52
2023-03-05T05:12:39.907Z,0.52
2023-03-05T05:13:40.751Z,0.54
2023-03-05T05:14:41.357Z,0.54
2023-03-05T05:15:42.222Z,0.54
2023-03-05T05:16:45.593Z,0.54
2023-03-05T05:17:43.709Z,0.54
2023-03-05T05:18:44.578Z,0.53
2023-03-05T05:19:45.102Z,0.54
2023-03-05T05:20:45.957Z,0.54
2023-03-05T05:21:46.811Z,0.54
2023-03-05T05:22:47.411Z,0.53
2023-03-05T05:23:48.262Z,0.53
2023-03-05T05:24:49.128Z,0.53
2023-03-05T05:25:49.699Z,0.53
2023-03-05T05:26:50.501Z,0.55
2023-03-05T05:27:51.365Z,0.54
2023-03-05T05:28:51.927Z,0.54
2023-03-05T05:29:52.728Z,0.54
2023-03-05T05:30:53.556Z,0.53
2023-03-05T05:31:54.265Z,0.53
2023-03-05T05:32:55.054Z,0.52
2023-03-05T05:33:55.873Z,0.53
2023-03-05T05:34:56.448Z,0.52
2023-03-05T05:35:57.274Z,0.53
2023-03-05T05:36:58.063Z,0.52
2023-03-05T05:37:58.611Z,0.54
2023-03-05T05:38:59.426Z,0.53
2023-03-05T05:40:00.217Z,0.53
2023-03-05T05:41:00.769Z,0.55
2023-03-05T05:42:01.565Z,0.53
2023-03-05T05:43:02.431Z,0.54
2023-03-05T05:44:02.968Z,0.53
2023-03-05T05:45:03.784Z,0.54
2023-03-05T05:46:04.705Z,0.54
2023-03-05T05:47:05.243Z,0.55
2023-03-05T05:48:06.051Z,0.56
2023-03-05T05:49:06.855Z,0.54
2023-03-05T05:50:07.389Z,0.55
2023-03-05T05:51:08.196Z,0.56
2023-03-05T05:52:08.993Z,0.55
2023-03-05T05:53:09.562Z,0.55
2023-03-05T05:54:10.364Z,0.55
2023-03-05T05:55:11.185Z,0.54
2023-03-05T05:56:11.726Z,0.53
2023-03-05T05:57:12.538Z,0.53
2023-03-05T05:58:13.369Z,0.53
2023-03-05T05:59:13.927Z,0.53
2023-03-05T06:00:14.729Z,0.54
2023-03-05T06:01:15.517Z,0.53
2023-03-05T06:02:16.089Z,0.54
2023-03-05T06:03:17.072Z,0.54
2023-03-05T06:04:17.907Z,0.55
2023-03-05T06:05:18.427Z,0.54
2023-03-05T06:06:19.222Z,0.54
2023-03-05T06:07:20.034Z,0.53
2023-03-05T06:08:20.574Z,0.53
2023-03-05T06:09:21.436Z,0.53
2023-03-05T06:10:22.228Z,0.53
2023-03-05T06:11:22.781Z,0.54
2023-03-05T06:12:23.572Z,0.54
2023-03-05T06:13:24.380Z,0.54
2023-03-05T06:14:24.946Z,0.54
2023-03-05T06:15:25.750Z,0.54
2023-03-05T06:16:26.574Z,0.56
2023-03-05T06:17:30.723Z,0.56
2023-03-05T06:18:27.950Z,0.56
2023-03-05T06:19:28.500Z,0.56
2023-03-05T06:20:29.286Z,0.56
2023-03-05T06:21:30.081Z,0.56
2023-03-05T06:22:30.612Z,0.56
2023-03-05T06:23:31.420Z,0.55
2023-03-05T06:24:32.218Z,0.55
2023-03-05T06:25:32.763Z,0.55
2023-03-05T06:26:33.568Z,0.55
2023-03-05T06:27:34.385Z,0.55
2023-03-05T06:28:34.925Z,0.54
2023-03-05T06:29:35.743Z,0.55
2023-03-05T06:30:36.569Z,0.55
2023-03-05T06:31:37.456Z,0.56
2023-03-05T06:32:37.895Z,0.56
2023-03-05T06:33:38.392Z,0.57
2023-03-05T06:34:39.209Z,0.58
2023-03-05T06:35:40.114Z,0.57
2023-03-05T06:36:40.630Z,0.57
2023-03-05T06:37:41.429Z,0.57
2023-03-05T06:38:42.229Z,0.58
2023-03-05T06:39:42.797Z,0.59
2023-03-05T06:40:43.608Z,0.59
2023-03-05T06:41:44.412Z,0.60
2023-03-05T06:42:44.946Z,0.60
2023-03-05T06:43:45.786Z,0.60
2023-03-05T06:44:48.240Z,0.60
2023-03-05T06:45:47.346Z,0.61
2023-03-05T06:46:48.129Z,0.60
2023-03-05T06:47:48.939Z,0.61
2023-03-05T06:48:49.477Z,0.60
2023-03-05T06:49:50.316Z,0.59
2023-03-05T06:50:51.117Z,0.59
2023-03-05T06:51:51.671Z,0.59
2023-03-05T06:52:52.450Z,0.59
2023-03-05T06:53:53.251Z,0.59
2023-03-05T06:54:53.813Z,0.59
2023-03-05T06:55:54.617Z,0.59
2023-03-05T06:56:55.414Z,0.58
2023-03-05T06:57:55.974Z,0.58
2023-03-05T06:58:56.783Z,0.60
2023-03-05T06:59:57.587Z,0.60
2023-03-05T07:00:58.140Z,0.61
2023-03-05T07:01:58.962Z,0.60
2023-03-05T07:02:59.740Z,0.61
2023-03-05T07:04:00.365Z,0.63
2023-03-05T07:05:01.327Z,0.63
2023-03-05T07:06:02.148Z,0.63
2023-03-05T07:07:02.688Z,0.63
2023-03-05T07:08:03.488Z,0.62
2023-03-05T07:09:04.294Z,0.62
2023-03-05T07:10:04.856Z,0.62
2023-03-05T07:11:05.651Z,0.63
2023-03-05T07:12:06.468Z,0.63
2023-03-05T07:13:07.019Z,0.63
2023-03-05T07:14:07.834Z,0.64
2023-03-05T07:15:08.631Z,0.62
2023-03-05T07:16:09.179Z,0.63
2023-03-05T07:17:09.975Z,0.61
2023-03-05T07:18:10.774Z,0.63
2023-03-05T07:19:11.319Z,0.63
2023-03-05T07:20:12.130Z,0.63
2023-03-05T07:21:12.937Z,0.62
2023-03-05T07:22:13.512Z,0.65
2023-03-05T07:23:14.310Z,0.65
2023-03-05T07:24:15.127Z,0.64
2023-03-05T07:25:15.692Z,0.64
2023-03-05T07:26:16.472Z,0.62
2023-03-05T07:27:17.292Z,0.63
2023-03-05T07:28:17.851Z,0.64
2023-03-05T07:29:18.637Z,0.64
2023-03-05T07:30:19.438Z,0.64
2023-03-05T07:31:20.087Z,0.66
2023-03-05T07:32:20.887Z,0.65
2023-03-05T07:33:21.648Z,0.64
2023-03-05T07:34:22.206Z,0.64
2023-03-05T07:35:23.072Z,0.66
2023-03-05T07:36:23.860Z,0.67
2023-03-05T07:37:24.389Z,0.66
2023-03-05T07:38:25.205Z,0.67
2023-03-05T07:39:25.982Z,0.67
2023-03-05T07:40:26.526Z,0.68
2023-03-05T07:41:27.341Z,0.70
2023-03-05T07:42:28.165Z,0.70
2023-03-05T07:43:28.915Z,0.71
2023-03-05T07:44:29.713Z,0.70
2023-03-05T07:45:30.527Z,0.70
2023-03-05T07:46:31.168Z,0.71
2023-03-05T07:47:31.966Z,0.72
2023-03-05T07:48:32.767Z,0.74
2023-03-05T07:49:33.300Z,0.72
2023-03-05T07:50:34.095Z,0.75
2023-03-05T07:51:34.908Z,0.75
2023-03-05T07:52:35.467Z,0.77
2023-03-05T07:53:36.262Z,0.78
2023-03-05T07:54:37.070Z,0.76
2023-03-05T07:55:37.609Z,0.76
2023-03-05T07:56:38.430Z,0.77
2023-03-05T07:57:39.229Z,0.78
2023-03-05T07:58:39.776Z,0.80
2023-03-05T07:59:40.592Z,0.80
2023-03-05T08:00:41.420Z,0.80
2023-03-05T08:01:41.964Z,0.82
2023-03-05T08:02:42.780Z,0.81
2023-03-05T08:03:43.632Z,0.81
2023-03-05T08:04:44.180Z,0.81
2023-03-05T08:05:44.999Z,0.80
2023-03-05T08:06:45.827Z,0.79
2023-03-05T08:07:46.362Z,0.82
2023-03-05T08:08:47.174Z,0.81
2023-03-05T08:09:47.974Z,0.83
2023-03-05T08:10:48.539Z,0.82
2023-03-05T08:11:49.378Z,0.84
2023-03-05T08:12:50.205Z,0.83
2023-03-05T08:13:50.747Z,0.82
2023-03-05T08:14:51.570Z,0.83
2023-03-05T08:15:52.449Z,0.84
2023-03-05T08:16:52.944Z,0.86
2023-03-05T08:17:53.798Z,0.87
2023-03-05T08:18:54.587Z,0.86
2023-03-05T08:19:55.130Z,0.87
2023-03-05T08:20:55.941Z,0.87
2023-03-05T08:21:56.729Z,0.88
2023-03-05T08:22:57.293Z,0.90
2023-03-05T08:23:58.104Z,0.90
2023-03-05T08:24:58.903Z,0.92
2023-03-05T08:25:59.509Z,0.90
2023-03-05T08:27:00.312Z,0.90
2023-03-05T08:28:01.200Z,0.89
2023-03-05T08:29:01.745Z,0.91
2023-03-05T08:30:02.571Z,0.91
2023-03-05T08:31:03.443Z,0.94
2023-03-05T08:32:03.999Z,0.94
2023-03-05T08:33:04.849Z,0.95
2023-03-05T08:34:05.664Z,0.97
2023-03-05T08:35:06.205Z,0.98
2023-03-05T08:36:07.003Z,0.97
2023-03-05T08:37:07.841Z,0.94
2023-03-05T08:38:08.367Z,0.95
2023-03-05T08:39:09.226Z,0.99
2023-03-05T08:40:10.043Z,1.00
2023-03-05T08:41:10.587Z,0.99
2023-03-05T08:42:11.414Z,0.99
2023-03-05T08:43:12.222Z,1.01
2023-03-05T08:44:12.837Z,1.02
2023-03-05T08:45:13.626Z,1.56
2023-03-05T08:46:14.480Z,3.46
2023-03-05T08:47:14.990Z,4.20
2023-03-05T08:48:15.785Z,4.01
2023-03-05T08:49:16.627Z,3.81
2023-03-05T08:50:17.181Z,3.78
2023-03-05T08:51:18.002Z,3.68
2023-03-05T08:52:18.815Z,3.55
2023-03-05T08:53:19.380Z,3.56
2023-03-05T08:54:20.242Z,3.45
2023-03-05T08:55:21.069Z,3.20
2023-03-05T08:56:21.606Z,2.90
2023-03-05T08:57:22.443Z,2.66
2023-03-05T08:58:23.271Z,2.51
2023-03-05T08:59:23.836Z,2.31
2023-03-05T09:00:24.654Z,2.14
2023-03-05T09:01:25.533Z,2.07
2023-03-05T09:02:26.054Z,2.06
2023-03-05T09:03:26.855Z,1.96
2023-03-05T09:04:27.649Z,1.96
2023-03-05T09:05:28.209Z,1.95
2023-03-05T09:06:29.034Z,1.91
2023-03-05T09:07:29.874Z,1.86
2023-03-05T09:08:30.429Z,1.84
2023-03-05T09:09:31.270Z,1.81
2023-03-05T09:10:32.073Z,1.81
2023-03-05T09:11:32.639Z,1.80
2023-03-05T09:12:33.467Z,1.78
2023-03-05T09:13:34.267Z,1.78
2023-03-05T09:14:34.840Z,1.82
2023-03-05T09:15:35.677Z,1.82
2023-03-05T09:16:36.544Z,1.85
2023-03-05T09:17:37.077Z,1.81
2023-03-05T09:18:37.880Z,1.78
2023-03-05T09:19:38.702Z,1.77
2023-03-05T09:20:39.265Z,1.77
2023-03-05T09:21:40.074Z,1.73
2023-03-05T09:22:40.900Z,1.76
2023-03-05T09:23:41.453Z,1.79
2023-03-05T09:24:42.294Z,1.78
2023-03-05T09:25:43.105Z,1.75
2023-03-05T09:26:43.656Z,1.74
2023-03-05T09:27:44.469Z,1.80
2023-03-05T09:28:45.276Z,1.76
2023-03-05T09:29:45.824Z,1.74
2023-03-05T09:30:46.641Z,1.73
2023-03-05T09:31:47.465Z,1.78
2023-03-05T09:32:48.055Z,1.76
2023-03-05T09:33:48.884Z,1.79
2023-03-05T09:34:49.702Z,1.86
2023-03-05T09:35:50.320Z,1.85
2023-03-05T09:36:51.111Z,1.88
2023-03-05T09:37:51.912Z,1.86
2023-03-05T09:38:52.467Z,1.86
2023-03-05T09:39:53.279Z,1.90
2023-03-05T09:40:54.089Z,1.87
2023-03-05T09:41:54.633Z,1.84
2023-03-05T09:42:55.443Z,1.79
2023-03-05T09:43:56.236Z,1.82
2023-03-05T09:44:56.777Z,1.79
2023-03-05T09:45:57.685Z,1.81
2023-03-05T09:46:58.448Z,1.87
2023-03-05T09:47:58.996Z,1.90
2023-03-05T09:48:59.815Z,1.92
2023-03-05T09:50:00.618Z,1.87
2023-03-05T09:51:01.185Z,1.93
2023-03-05T09:52:01.999Z,1.90
2023-03-05T09:53:02.828Z,1.93
2023-03-05T09:54:03.347Z,1.93
2023-03-05T09:55:04.158Z,2.01
2023-03-05T09:56:04.970Z,2.05
2023-03-05T09:57:05.511Z,2.07
2023-03-05T09:58:06.326Z,2.11
2023-03-05T09:59:07.127Z,2.04
2023-03-05T10:00:07.673Z,2.06
2023-03-05T10:01:08.642Z,2.05
2023-03-05T10:02:09.431Z,2.08
2023-03-05T10:03:10.008Z,2.06
2023-03-05T10:04:10.846Z,2.06
2023-03-05T10:05:11.632Z,2.03
2023-03-05T10:06:12.186Z,2.06
2023-03-05T10:07:13.008Z,2.00
2023-03-05T10:08:13.805Z,2.00
2023-03-05T10:09:14.349Z,2.04
2023-03-05T10:10:15.177Z,2.08
2023-03-05T10:11:16.012Z,2.11
2023-03-05T10:12:16.552Z,2.18
2023-03-05T10:13:17.349Z,2.21
2023-03-05T10:14:18.147Z,2.19
2023-03-05T10:15:18.703Z,2.15
2023-03-05T10:16:19.532Z,2.11
2023-03-05T10:17:20.338Z,2.08
2023-03-05T10:18:20.899Z,2.11
2023-03-05T10:19:21.706Z,2.08
2023-03-05T10:20:22.510Z,2.08
2023-03-05T10:21:23.072Z,2.10
2023-03-05T10:22:23.898Z,2.06
2023-03-05T10:23:24.768Z,2.00
2023-03-05T10:24:25.325Z,2.01
2023-03-05T10:25:26.155Z,2.01
2023-03-05T10:26:26.962Z,2.03
2023-03-05T10:27:27.531Z,2.04
2023-03-05T10:28:28.316Z,2.04
2023-03-05T10:29:29.161Z,2.05
2023-03-05T10:30:29.699Z,2.06
2023-03-05T10:31:30.518Z,2.07
2023-03-05T10:32:31.355Z,2.10
2023-03-05T10:33:33.575Z,2.12
2023-03-05T10:34:32.706Z,2.13
2023-03-05T10:35:33.523Z,2.15
2023-03-05T10:36:34.271Z,2.19
2023-03-05T10:37:34.820Z,2.24
2023-03-05T10:38:35.617Z,2.34
2023-03-05T10:39:36.435Z,2.33
2023-03-05T10:40:36.964Z,2.30
2023-03-05T10:41:37.762Z,2.30
2023-03-05T10:42:40.146Z,2.26
2023-03-05T10:43:39.206Z,2.29
2023-03-05T10:44:39.994Z,2.32
2023-03-05T10:45:40.896Z,2.34
2023-03-05T10:46:41.409Z,2.37
2023-03-05T10:47:42.229Z,2.38
2023-03-05T10:48:43.034Z,2.41
2023-03-05T10:49:43.569Z,2.43
2023-03-05T10:50:44.387Z,2.55
2023-03-05T10:51:45.187Z,2.55
2023-03-05T10:52:45.730Z,2.53
2023-03-05T10:53:46.548Z,2.56
2023-03-05T10:54:47.366Z,2.62
2023-03-05T10:55:47.952Z,2.51
2023-03-05T10:56:48.755Z,2.57
2023-03-05T10:57:49.566Z,2.54
2023-03-05T10:58:50.093Z,2.55
2023-03-05T10:59:50.902Z,2.45
2023-03-05T11:00:51.711Z,2.49
2023-03-05T11:01:52.268Z,2.41
2023-03-05T11:02:53.111Z,2.40
2023-03-05T11:03:53.902Z,2.51
2023-03-05T11:04:54.454Z,2.54
2023-03-05T11:05:55.262Z,2.36
2023-03-05T11:06:56.069Z,2.38
2023-03-05T11:07:56.632Z,2.43
2023-03-05T11:08:57.436Z,2.32
2023-03-05T11:09:58.257Z,2.27
2023-03-05T11:10:58.813Z,2.26
2023-03-05T11:11:59.615Z,2.25
2023-03-05T11:13:00.420Z,2.18
2023-03-05T11:14:01.006Z,2.14
2023-03-05T11:15:01.769Z,2.19
2023-03-05T11:16:02.646Z,2.19
2023-03-05T11:17:03.167Z,2.19
2023-03-05T11:18:03.996Z,2.21
2023-03-05T11:19:04.788Z,2.22
2023-03-05T11:20:05.345Z,2.25
2023-03-05T11:21:06.155Z,2.27
2023-03-05T11:22:06.964Z,2.26
2023-03-05T11:23:07.507Z,2.26
2023-03-05T11:24:08.325Z,2.18
2023-03-05T11:25:09.118Z,2.26
2023-03-05T11:26:09.683Z,2.29
2023-03-05T11:27:10.481Z,2.31
2023-03-05T11:28:12.705Z,2.28
2023-03-05T11:29:12.251Z,2.23
2023-03-05T11:30:13.057Z,2.51
2023-03-05T11:31:13.941Z,2.80
2023-03-05T11:32:14.476Z,3.07
2023-03-05T11:33:15.245Z,3.34
2023-03-05T11:34:16.092Z,3.52
2023-03-05T11:35:16.616Z,3.78
2023-03-05T11:36:17.420Z,3.85
2023-03-05T11:37:18.230Z,3.87
2023-03-05T11:38:18.813Z,5.34
2023-03-05T11:39:19.629Z,6.43
2023-03-05T11:40:20.458Z,6.21
2023-03-05T11:41:20.971Z,5.49
2023-03-05T11:42:21.775Z,5.09
2023-03-05T11:43:22.579Z,4.78
2023-03-05T11:44:23.184Z,4.54
2023-03-05T11:45:23.963Z,4.28
2023-03-05T11:46:24.820Z,4.06
2023-03-05T11:47:25.347Z,3.86
2023-03-05T11:48:26.149Z,3.62
2023-03-05T11:49:26.965Z,3.26
2023-03-05T11:50:27.491Z,3.22
2023-03-05T11:51:28.298Z,2.99
2023-03-05T11:52:29.109Z,2.76
2023-03-05T11:53:29.668Z,2.85
2023-03-05T11:54:30.477Z,2.70
2023-03-05T11:55:31.274Z,2.61
2023-03-05T11:56:31.819Z,2.67
2023-03-05T11:57:32.623Z,2.56
2023-03-05T11:58:33.448Z,2.47
2023-03-05T11:59:34.010Z,2.50
2023-03-05T12:00:34.838Z,2.49
2023-03-05T12:01:35.625Z,2.41
2023-03-05T12:02:36.201Z,2.27
2023-03-05T12:03:36.982Z,2.36
2023-03-05T12:04:37.796Z,2.23
2023-03-05T12:05:38.327Z,2.28
2023-03-05T12:06:39.658Z,2.20
2023-03-05T12:07:39.972Z,2.18
2023-03-05T12:08:40.618Z,2.12
2023-03-05T12:09:41.398Z,2.12
2023-03-05T12:10:42.428Z,2.12
2023-03-05T12:11:43.348Z,2.18
2023-03-05T12:12:43.708Z,2.22
2023-03-05T12:13:44.253Z,2.22
2023-03-05T12:14:45.096Z,2.13
2023-03-05T12:15:45.915Z,2.20
2023-03-05T12:16:46.447Z,2.22
2023-03-05T12:17:47.257Z,2.19
2023-03-05T12:18:48.560Z,2.16
2023-03-05T12:19:48.576Z,2.12
2023-03-05T12:20:49.430Z,2.08
2023-03-05T12:21:50.204Z,2.06
2023-03-05T12:22:50.741Z,2.10
2023-03-05T12:23:51.546Z,2.04
2023-03-05T12:24:52.371Z,1.98
2023-03-05T12:25:52.921Z,1.97
2023-03-05T12:26:53.730Z,1.95
2023-03-05T12:27:54.540Z,1.92
2023-03-05T12:28:55.074Z,1.87
2023-03-05T12:29:55.888Z,1.84
2023-03-05T12:30:56.690Z,1.80
2023-03-05T12:31:57.231Z,1.81
2023-03-05T12:32:58.043Z,1.80
2023-03-05T12:33:58.841Z,1.82
2023-03-05T12:34:59.424Z,1.86
2023-03-05T12:36:00.315Z,1.87
2023-03-05T12:37:01.071Z,1.84
2023-03-05T12:38:02.942Z,1.82
2023-03-05T12:39:02.797Z,1.82
2023-03-05T12:40:03.337Z,1.81
2023-03-05T12:41:04.128Z,1.75
2023-03-05T12:42:04.922Z,1.68
2023-03-05T12:43:05.455Z,1.67
2023-03-05T12:44:06.304Z,1.64
2023-03-05T12:45:07.103Z,1.61
2023-03-05T12:46:07.638Z,1.55
2023-03-05T12:47:08.439Z,1.54
2023-03-05T12:48:09.252Z,1.52
2023-03-05T12:49:09.792Z,1.48
2023-03-05T12:50:10.605Z,1.46
2023-03-05T12:51:11.410Z,1.47
2023-03-05T12:52:11.945Z,1.53
2023-03-05T12:53:12.750Z,1.51
2023-03-05T12:54:13.545Z,1.54
2023-03-05T12:55:14.155Z,1.56
2023-03-05T12:56:14.945Z,1.57
2023-03-05T12:57:15.745Z,1.57
2023-03-05T12:58:16.309Z,1.60
2023-03-05T12:59:17.132Z,1.57
2023-03-05T13:00:17.939Z,1.60
2023-03-05T13:01:18.489Z,1.62
2023-03-05T13:02:19.279Z,1.62
2023-03-05T13:03:20.138Z,1.63
2023-03-05T13:04:20.668Z,1.67
2023-03-05T13:05:21.484Z,1.67
2023-03-05T13:06:22.283Z,1.66
2023-03-05T13:07:22.828Z,1.69
2023-03-05T13:08:23.619Z,1.68
2023-03-05T13:09:24.428Z,1.73
2023-03-05T13:10:24.995Z,1.66
2023-03-05T13:11:25.786Z,1.69
2023-03-05T13:12:26.648Z,1.63
2023-03-05T13:13:27.168Z,1.68
2023-03-05T13:14:27.954Z,1.63
2023-03-05T13:15:28.782Z,1.64
2023-03-05T13:16:29.430Z,1.67
2023-03-05T13:17:30.234Z,1.65
2023-03-05T13:18:31.039Z,1.63
2023-03-05T13:19:31.598Z,1.63
2023-03-05T13:20:32.425Z,1.59
2023-03-05T13:21:33.225Z,1.57
2023-03-05T13:22:33.769Z,1.57
2023-03-05T13:23:34.580Z,1.57
2023-03-05T13:24:35.392Z,1.59
2023-03-05T13:25:35.952Z,1.58
2023-03-05T13:26:36.766Z,1.57
2023-03-05T13:27:37.607Z,1.55
2023-03-05T13:28:38.166Z,1.52